Saint-Georges, Canada
Current Conditions -  °F | °C
As of 12:00 AM on Friday 31 Oct 2014 (Local Time) from CYQB Reporting Station
Overcast Overcast  
Wind Chill: 41°   Ceiling: 5500
Heat Index: 41°   Visibility: 15mi
Dew Point: 30°   Wind: 3mph
Humidity: 65%   Direction: 290°WNW
Pressure: 29.97"   Gusts: NA
Location:  46.12°N, 70.67°W
Report Text: CYQB 310400Z 29003KT 270V330 15SM OVC055 05/M01 A2997 RMK SC8 SLP150
Loading
Personal Weather Stations






























Interactive Weather Map
Tropical Storm Tracking
New forecast layout! Learn more

10-Day Weather Forecast

Advertisements
Track Severe Weather on mobile